createdAt,value
2023-05-23T00:00:11.474Z,9.95
2023-05-23T00:02:39.986Z,10.15
2023-05-23T00:05:09.310Z,9.68
2023-05-23T00:07:37.520Z,10.60
2023-05-23T00:10:06.442Z,10.93
2023-05-23T00:12:34.782Z,9.75
2023-05-23T00:15:04.411Z,10.15
2023-05-23T00:17:32.527Z,10.40
2023-05-23T00:20:01.001Z,10.23
2023-05-23T00:22:29.098Z,10.32
2023-05-23T00:24:57.824Z,9.82
2023-05-23T00:27:25.956Z,9.57
2023-05-23T00:29:54.070Z,9.52
2023-05-23T00:32:23.635Z,9.05
2023-05-23T00:34:54.243Z,9.55
2023-05-23T00:37:22.681Z,10.85
2023-05-23T00:39:50.888Z,10.38
2023-05-23T00:42:19.167Z,9.48
2023-05-23T00:44:48.520Z,9.57
2023-05-23T00:47:16.887Z,9.88
2023-05-23T00:49:46.855Z,10.57
2023-05-23T00:52:16.522Z,9.98
2023-05-23T00:54:44.884Z,10.15
2023-05-23T00:57:13.097Z,10.10
2023-05-23T00:59:41.582Z,10.35
2023-05-23T01:02:10.737Z,9.88
2023-05-23T01:04:39.982Z,10.13
2023-05-23T01:07:10.276Z,10.30
2023-05-23T01:09:38.688Z,10.38
2023-05-23T01:12:20.451Z,10.30
2023-05-23T01:14:57.115Z,10.23
2023-05-23T01:17:33.553Z,10.45
2023-05-23T01:20:09.057Z,10.55
2023-05-23T01:23:02.535Z,10.77
2023-05-23T01:25:46.628Z,10.65
2023-05-23T01:28:20.155Z,11.02
2023-05-23T01:30:53.213Z,11.57
2023-05-23T01:33:23.764Z,11.55
2023-05-23T01:35:52.366Z,11.75
2023-05-23T01:38:20.686Z,12.75
2023-05-23T01:40:49.702Z,11.95
2023-05-23T01:43:19.449Z,12.48
2023-05-23T01:45:48.376Z,11.90
2023-05-23T01:48:18.259Z,10.60
2023-05-23T01:50:47.069Z,12.25
2023-05-23T01:53:18.437Z,11.13
2023-05-23T01:55:46.775Z,11.60
2023-05-23T01:58:15.005Z,12.10
2023-05-23T02:00:44.613Z,11.20
2023-05-23T02:03:13.228Z,11.50
2023-05-23T02:05:41.733Z,11.10
2023-05-23T02:08:10.534Z,10.63
2023-05-23T02:10:38.663Z,10.90
2023-05-23T02:13:06.787Z,10.23
2023-05-23T02:15:34.949Z,10.18
2023-05-23T02:18:06.661Z,10.00
2023-05-23T02:20:35.280Z,9.25
2023-05-23T02:23:03.500Z,9.32
2023-05-23T02:25:31.870Z,8.63
2023-05-23T02:28:00.350Z,8.15
2023-05-23T02:30:28.509Z,7.72
2023-05-23T02:32:57.665Z,6.97
2023-05-23T02:35:27.202Z,6.68
2023-05-23T02:37:55.294Z,7.28
2023-05-23T02:40:23.472Z,6.68
2023-05-23T02:42:51.669Z,7.35
2023-05-23T02:45:19.954Z,6.07
2023-05-23T02:47:48.122Z,7.82
2023-05-23T02:50:16.622Z,7.70
2023-05-23T02:52:46.222Z,7.47
2023-05-23T02:55:14.431Z,7.47
2023-05-23T02:57:42.626Z,7.78
2023-05-23T03:00:12.191Z,7.93
2023-05-23T03:02:40.474Z,7.22
2023-05-23T03:05:09.432Z,8.88
2023-05-23T03:07:38.123Z,7.60
2023-05-23T03:10:09.251Z,6.57
2023-05-23T03:12:38.095Z,6.82
2023-05-23T03:15:07.487Z,6.78
2023-05-23T03:17:35.855Z,6.45
2023-05-23T03:20:05.040Z,7.18
2023-05-23T03:22:33.163Z,7.38
2023-05-23T03:25:01.447Z,7.15
2023-05-23T03:27:31.058Z,7.32
2023-05-23T03:29:59.168Z,6.43
2023-05-23T03:32:27.309Z,7.50
2023-05-23T03:34:56.267Z,7.97
2023-05-23T03:37:24.388Z,6.63
2023-05-23T03:39:52.522Z,7.05
2023-05-23T03:42:20.628Z,6.43
2023-05-23T03:44:50.144Z,6.78
2023-05-23T03:47:18.357Z,6.47
2023-05-23T03:49:46.633Z,6.53
2023-05-23T03:52:14.800Z,6.35
2023-05-23T03:54:43.027Z,6.85
2023-05-23T03:57:11.137Z,6.85
2023-05-23T03:59:39.272Z,6.65
2023-05-23T04:02:08.976Z,6.72
2023-05-23T04:04:37.428Z,6.63
2023-05-23T04:07:06.023Z,6.25
2023-05-23T04:09:34.159Z,5.97
2023-05-23T04:12:02.418Z,6.28
2023-05-23T04:14:30.694Z,5.75
2023-05-23T04:16:59.198Z,6.38
2023-05-23T04:19:28.742Z,6.57
2023-05-23T04:21:56.835Z,4.97
2023-05-23T04:24:24.996Z,5.40
2023-05-23T04:26:56.243Z,4.88
2023-05-23T04:29:26.216Z,4.63
2023-05-23T04:31:55.174Z,4.57
2023-05-23T04:34:23.480Z,4.80
2023-05-23T04:36:53.958Z,4.55
2023-05-23T04:39:22.205Z,4.28
2023-05-23T04:41:50.641Z,4.75
2023-05-23T04:44:18.809Z,5.07
2023-05-23T04:46:47.301Z,3.95
2023-05-23T04:49:15.657Z,3.80
2023-05-23T04:51:44.123Z,3.40
2023-05-23T04:54:13.665Z,3.33
2023-05-23T04:56:41.915Z,3.25
2023-05-23T04:59:11.624Z,3.22
2023-05-23T05:01:40.560Z,3.00
2023-05-23T05:04:08.940Z,2.65
2023-05-23T05:06:37.310Z,3.13
2023-05-23T05:09:05.574Z,3.08
2023-05-23T05:11:35.125Z,3.10
2023-05-23T05:14:03.403Z,3.05
2023-05-23T05:16:31.919Z,2.50
2023-05-23T05:19:00.322Z,3.00
2023-05-23T05:21:28.515Z,2.63
2023-05-23T05:23:56.900Z,4.00
2023-05-23T05:26:25.175Z,3.50
2023-05-23T05:28:54.888Z,3.17
2023-05-23T05:31:23.134Z,2.88
2023-05-23T05:33:51.348Z,2.83
2023-05-23T05:36:20.913Z,3.47
2023-05-23T05:38:49.277Z,2.70
2023-05-23T05:41:17.512Z,3.08
2023-05-23T05:43:48.049Z,2.60
2023-05-23T05:46:17.982Z,3.22
2023-05-23T05:48:46.910Z,3.53
2023-05-23T05:51:15.082Z,3.70
2023-05-23T05:53:43.205Z,3.38
2023-05-23T05:56:11.397Z,3.35
2023-05-23T05:58:39.655Z,2.72
2023-05-23T06:01:07.954Z,2.35
2023-05-23T06:03:37.553Z,2.80
2023-05-23T06:06:06.925Z,2.78
2023-05-23T06:08:35.171Z,2.10
2023-05-23T06:11:03.368Z,2.47
2023-05-23T06:13:31.513Z,2.58
2023-05-23T06:15:59.682Z,2.42
2023-05-23T06:18:27.892Z,2.22
2023-05-23T06:20:57.632Z,1.95
2023-05-23T06:23:25.843Z,2.70
2023-05-23T06:25:54.217Z,13.02
2023-05-23T06:28:22.444Z,10.90
2023-05-23T06:30:51.154Z,6.15
2023-05-23T06:33:19.276Z,3.83
2023-05-23T06:35:47.633Z,3.08
2023-05-23T06:38:17.878Z,2.72
2023-05-23T06:40:46.387Z,2.30
2023-05-23T06:43:14.573Z,2.17
2023-05-23T06:45:42.876Z,1.90
2023-05-23T06:48:11.693Z,2.30
2023-05-23T06:50:40.071Z,2.22
2023-05-23T06:53:08.495Z,2.25
2023-05-23T06:55:38.050Z,2.22
2023-05-23T06:58:06.364Z,2.25
2023-05-23T07:00:34.682Z,2.80
2023-05-23T07:03:03.826Z,2.65
2023-05-23T07:05:33.459Z,2.45
2023-05-23T07:08:01.683Z,3.03
2023-05-23T07:10:29.879Z,2.58
2023-05-23T07:12:59.545Z,2.60
2023-05-23T07:15:27.767Z,2.72
2023-05-23T07:17:56.013Z,2.50
2023-05-23T07:20:24.580Z,2.67
2023-05-23T07:22:52.903Z,2.55
2023-05-23T07:25:23.526Z,2.67
2023-05-23T07:27:52.751Z,2.45
2023-05-23T07:30:22.838Z,2.80
2023-05-23T07:32:52.378Z,2.90
2023-05-23T07:35:24.119Z,3.13
2023-05-23T07:37:52.394Z,2.85
2023-05-23T07:40:21.254Z,2.33
2023-05-23T07:42:49.594Z,2.78
2023-05-23T07:45:18.077Z,2.83
2023-05-23T07:47:47.680Z,2.45
2023-05-23T07:50:16.244Z,2.50
2023-05-23T07:52:44.971Z,2.42
2023-05-23T07:55:13.172Z,2.90
2023-05-23T07:57:41.394Z,2.35
2023-05-23T08:00:11.175Z,2.67
2023-05-23T08:02:39.337Z,2.30
2023-05-23T08:05:10.038Z,2.22
2023-05-23T08:07:38.210Z,2.10
2023-05-23T08:10:07.586Z,2.25
2023-05-23T08:12:35.829Z,2.30
2023-05-23T08:15:04.277Z,1.98
2023-05-23T08:17:32.516Z,2.08
2023-05-23T08:20:02.223Z,2.70
2023-05-23T08:22:31.716Z,1.70
2023-05-23T08:24:59.854Z,1.88
2023-05-23T08:27:27.984Z,1.70
2023-05-23T08:29:56.393Z,1.98
2023-05-23T08:32:24.784Z,1.52
2023-05-23T08:34:53.162Z,1.65
2023-05-23T08:37:21.386Z,1.80
2023-05-23T08:39:52.219Z,1.73
2023-05-23T08:42:20.577Z,1.60
2023-05-23T08:44:50.742Z,1.80
2023-05-23T08:47:21.965Z,2.05
2023-05-23T08:49:53.593Z,1.77
2023-05-23T08:52:26.854Z,1.95
2023-05-23T08:54:56.924Z,1.95
2023-05-23T08:57:26.758Z,1.48
2023-05-23T08:59:56.281Z,1.77
2023-05-23T09:02:24.816Z,1.70
2023-05-23T09:04:53.532Z,1.60
2023-05-23T09:07:21.752Z,3.50
2023-05-23T09:09:49.968Z,2.10
2023-05-23T09:12:22.427Z,2.30
2023-05-23T09:14:50.705Z,2.17
2023-05-23T09:17:20.058Z,2.20
2023-05-23T09:19:48.491Z,2.30
2023-05-23T09:22:16.589Z,2.58
2023-05-23T09:24:45.257Z,2.10
2023-05-23T09:27:13.448Z,2.78
2023-05-23T09:29:43.588Z,2.47
2023-05-23T09:32:15.862Z,2.05
2023-05-23T09:34:44.511Z,2.17
2023-05-23T09:37:19.055Z,1.92
2023-05-23T09:39:48.855Z,1.77
2023-05-23T09:42:22.164Z,1.88
2023-05-23T09:47:19.841Z,1.52
2023-05-23T09:49:48.499Z,1.52
2023-05-23T09:52:16.636Z,1.80
2023-05-23T09:54:46.612Z,1.60
2023-05-23T09:57:16.750Z,1.55
2023-05-23T09:59:56.444Z,1.55
2023-05-23T10:02:54.902Z,1.60
2023-05-23T10:05:42.162Z,1.60
2023-05-23T10:08:13.476Z,1.48
2023-05-23T10:11:33.148Z,1.30
2023-05-23T10:14:04.001Z,1.50
2023-05-23T10:16:41.411Z,1.30
2023-05-23T10:19:18.993Z,1.40
2023-05-23T10:21:51.917Z,1.17
2023-05-23T10:24:20.846Z,1.10
2023-05-23T10:26:50.177Z,1.15
2023-05-23T10:29:18.363Z,1.38
2023-05-23T10:31:48.635Z,0.93
2023-05-23T10:34:24.484Z,0.90
2023-05-23T10:37:00.611Z,0.80
2023-05-23T10:39:57.458Z,1.00
2023-05-23T10:42:34.850Z,1.00
2023-05-23T10:45:16.695Z,0.80
2023-05-23T10:47:47.569Z,1.00
2023-05-23T10:50:17.889Z,1.00
2023-05-23T10:52:46.082Z,0.98
2023-05-23T10:55:17.832Z,0.90
2023-05-23T10:57:47.564Z,0.95
2023-05-23T11:00:17.630Z,1.08
2023-05-23T11:02:56.388Z,1.10
2023-05-23T11:05:28.250Z,0.75
2023-05-23T11:08:09.291Z,1.10
2023-05-23T11:10:57.297Z,1.02
2023-05-23T11:13:25.479Z,0.85
2023-05-23T11:15:53.854Z,1.00
2023-05-23T11:18:25.632Z,0.70
2023-05-23T11:20:54.918Z,0.80
2023-05-23T11:23:23.644Z,0.75
2023-05-23T11:25:53.908Z,0.60
2023-05-23T11:28:22.359Z,0.63
2023-05-23T11:30:51.167Z,0.70
2023-05-23T11:33:20.866Z,0.60
2023-05-23T11:35:52.917Z,0.70
2023-05-23T11:38:21.297Z,0.60
2023-05-23T11:40:49.656Z,0.75
2023-05-23T11:43:19.831Z,0.80
2023-05-23T11:45:48.517Z,0.60
2023-05-23T11:48:18.099Z,0.73
2023-05-23T11:50:48.473Z,0.60
2023-05-23T11:53:20.947Z,0.60
2023-05-23T11:55:54.400Z,0.80
2023-05-23T11:58:23.421Z,0.70
2023-05-23T12:00:54.376Z,0.82
2023-05-23T12:03:23.476Z,0.80
2023-05-23T12:05:53.771Z,0.95
2023-05-23T12:08:23.786Z,0.90
2023-05-23T12:10:54.149Z,0.80
2023-05-23T12:13:25.882Z,0.85
2023-05-23T12:15:58.525Z,0.90
2023-05-23T12:18:30.093Z,1.00
2023-05-23T12:21:01.288Z,1.20
2023-05-23T12:23:33.869Z,1.02
2023-05-23T12:26:07.186Z,1.02
2023-05-23T12:28:39.932Z,0.98
2023-05-23T12:31:17.299Z,1.13
2023-05-23T12:33:47.805Z,1.67
2023-05-23T12:36:22.669Z,1.20
2023-05-23T12:38:52.237Z,1.58
2023-05-23T12:41:22.309Z,1.55
2023-05-23T12:43:54.717Z,1.50
2023-05-23T12:46:23.914Z,1.57
2023-05-23T12:48:52.915Z,1.70
2023-05-23T12:51:21.767Z,1.27
2023-05-23T12:53:51.832Z,1.35
2023-05-23T12:56:19.975Z,1.20
2023-05-23T12:58:48.383Z,1.80
2023-05-23T13:01:16.630Z,1.92
2023-05-23T13:03:44.853Z,1.63
2023-05-23T13:06:13.214Z,1.70
2023-05-23T13:08:41.701Z,1.75
2023-05-23T13:11:11.519Z,1.40
2023-05-23T13:13:40.525Z,1.75
2023-05-23T13:16:09.599Z,1.50
2023-05-23T13:18:37.981Z,1.60
2023-05-23T13:21:06.760Z,1.52
2023-05-23T13:23:36.140Z,1.42
2023-05-23T13:26:04.909Z,1.48
2023-05-23T13:28:34.514Z,1.70
2023-05-23T13:31:03.662Z,1.67
2023-05-23T13:33:31.902Z,1.90
2023-05-23T13:36:00.178Z,1.65
2023-05-23T13:38:30.828Z,1.70
2023-05-23T13:40:58.932Z,1.73
2023-05-23T13:43:27.303Z,1.88
2023-05-23T13:45:56.984Z,1.40
2023-05-23T13:48:25.334Z,1.55
2023-05-23T13:50:53.471Z,1.70
2023-05-23T13:53:21.909Z,1.80
2023-05-23T13:55:50.245Z,1.42
2023-05-23T13:58:18.489Z,1.42
2023-05-23T14:00:47.619Z,1.42
2023-05-23T14:03:19.325Z,1.42
2023-05-23T14:05:47.540Z,1.70
2023-05-23T14:08:16.150Z,1.50
2023-05-23T14:10:44.452Z,1.23
2023-05-23T14:13:13.090Z,1.27
2023-05-23T14:15:42.449Z,1.33
2023-05-23T14:18:10.983Z,1.20
2023-05-23T14:20:40.536Z,1.30
2023-05-23T14:23:08.650Z,1.33
2023-05-23T14:25:36.990Z,1.50
2023-05-23T14:28:05.104Z,1.25
2023-05-23T14:30:33.235Z,1.50
2023-05-23T14:33:01.405Z,1.38
2023-05-23T14:35:30.024Z,1.40
2023-05-23T14:37:59.530Z,1.67
2023-05-23T14:40:28.010Z,1.85
2023-05-23T14:42:56.082Z,1.90
2023-05-23T14:45:24.261Z,1.98
2023-05-23T14:47:52.707Z,2.30
2023-05-23T14:50:21.664Z,2.10
2023-05-23T14:52:49.798Z,2.28
2023-05-23T14:55:19.704Z,2.15
2023-05-23T14:57:48.081Z,2.10
2023-05-23T15:00:17.503Z,1.83
2023-05-23T15:02:46.036Z,2.38
2023-05-23T15:05:15.337Z,1.80
2023-05-23T15:07:44.406Z,1.80
2023-05-23T15:10:12.702Z,1.90
2023-05-23T15:12:42.660Z,2.20
2023-05-23T15:15:11.478Z,2.20
2023-05-23T15:17:39.620Z,1.60
2023-05-23T15:20:10.218Z,2.22
2023-05-23T15:22:40.072Z,1.88
2023-05-23T15:25:09.604Z,1.90
2023-05-23T15:27:37.772Z,1.92
2023-05-23T15:30:08.982Z,1.83
2023-05-23T15:32:37.121Z,1.77
2023-05-23T15:35:06.062Z,2.05
2023-05-23T15:37:34.136Z,1.98
2023-05-23T15:40:02.409Z,1.95
2023-05-23T15:42:30.562Z,1.90
2023-05-23T15:44:58.674Z,1.85
2023-05-23T15:47:28.449Z,2.13
2023-05-23T15:49:56.661Z,2.67
2023-05-23T15:52:24.751Z,2.22
2023-05-23T15:54:52.854Z,2.92
2023-05-23T15:57:21.109Z,2.88
2023-05-23T15:59:49.262Z,2.95
2023-05-23T16:02:19.011Z,2.72
2023-05-23T16:04:48.500Z,2.90
2023-05-23T16:07:18.379Z,2.42
2023-05-23T16:09:46.751Z,3.00
2023-05-23T16:12:14.851Z,2.53
2023-05-23T16:14:43.031Z,2.40
2023-05-23T16:17:11.191Z,2.50
2023-05-23T16:19:39.417Z,2.08
2023-05-23T16:22:08.943Z,2.42
2023-05-23T16:24:37.114Z,1.75
2023-05-23T16:27:05.545Z,2.17
2023-05-23T16:29:33.653Z,1.58
2023-05-23T16:32:01.902Z,1.77
2023-05-23T16:34:30.122Z,1.80
2023-05-23T16:36:58.308Z,2.10
2023-05-23T16:39:27.889Z,1.80
2023-05-23T16:41:57.431Z,2.08
2023-05-23T16:44:26.997Z,2.00
2023-05-23T16:46:55.430Z,2.03
2023-05-23T16:49:23.544Z,2.30
2023-05-23T16:51:51.658Z,2.08
2023-05-23T16:54:19.860Z,1.52
2023-05-23T16:56:50.734Z,2.03
2023-05-23T16:59:19.182Z,2.15
2023-05-23T17:01:47.695Z,2.63
2023-05-23T17:04:17.630Z,2.05
2023-05-23T17:06:47.011Z,2.85
2023-05-23T17:09:15.179Z,2.40
2023-05-23T17:11:43.329Z,4.90
2023-05-23T17:14:12.865Z,3.25
2023-05-23T17:16:41.100Z,2.60
2023-05-23T17:19:09.446Z,2.33
2023-05-23T17:21:37.678Z,2.33
2023-05-23T17:24:06.014Z,2.33
2023-05-23T17:26:34.383Z,2.38
2023-05-23T17:29:02.564Z,2.22
2023-05-23T17:31:32.170Z,2.17
2023-05-23T17:34:00.542Z,2.00
2023-05-23T17:36:28.645Z,2.70
2023-05-23T17:38:56.855Z,2.33
2023-05-23T17:41:24.963Z,2.22
2023-05-23T17:43:53.056Z,3.33
2023-05-23T17:46:21.794Z,2.47
2023-05-23T17:48:52.596Z,2.20
2023-05-23T17:51:21.478Z,2.20
2023-05-23T17:53:53.499Z,2.50
2023-05-23T17:56:23.138Z,2.05
2023-05-23T17:58:51.335Z,2.60
2023-05-23T18:01:19.722Z,4.28
2023-05-23T18:03:48.982Z,3.15
2023-05-23T18:06:18.692Z,2.08
2023-05-23T18:08:46.881Z,2.08
2023-05-23T18:11:15.238Z,2.70
2023-05-23T18:13:43.892Z,2.30
2023-05-23T18:16:12.094Z,2.15
2023-05-23T18:18:40.710Z,2.78
2023-05-23T18:21:09.833Z,2.15
2023-05-23T18:23:39.581Z,2.33
2023-05-23T18:26:07.688Z,2.55
2023-05-23T18:28:35.886Z,2.22
2023-05-23T18:31:04.333Z,2.70
2023-05-23T18:33:32.499Z,3.83
2023-05-23T18:36:01.498Z,4.88
2023-05-23T18:38:29.644Z,5.18
2023-05-23T18:40:59.443Z,3.17
2023-05-23T18:43:27.590Z,3.05
2023-05-23T18:45:55.889Z,2.83
2023-05-23T18:48:23.982Z,3.08
2023-05-23T18:50:52.117Z,3.42
2023-05-23T18:53:20.407Z,2.33
2023-05-23T18:55:48.569Z,3.55
2023-05-23T18:58:18.216Z,2.97
2023-05-23T19:00:46.377Z,2.78
2023-05-23T19:03:14.630Z,2.40
2023-05-23T19:05:42.851Z,2.40
2023-05-23T19:08:10.972Z,2.63
2023-05-23T19:10:39.124Z,2.78
2023-05-23T19:13:07.557Z,2.22
2023-05-23T19:15:37.043Z,1.98
2023-05-23T19:18:05.731Z,2.25
2023-05-23T19:20:34.091Z,2.78
2023-05-23T19:23:02.257Z,2.40
2023-05-23T19:25:30.821Z,2.20
2023-05-23T19:27:58.955Z,2.17
2023-05-23T19:30:27.070Z,2.15
2023-05-23T19:32:56.698Z,2.30
2023-05-23T19:35:24.944Z,1.83
2023-05-23T19:37:53.154Z,2.45
2023-05-23T19:40:22.476Z,2.40
2023-05-23T19:42:50.800Z,2.22
2023-05-23T19:45:19.223Z,2.28
2023-05-23T19:47:47.388Z,2.45
2023-05-23T19:50:16.934Z,2.55
2023-05-23T19:52:45.066Z,2.63
2023-05-23T19:55:14.298Z,2.50
2023-05-23T19:57:42.542Z,2.35
2023-05-23T20:00:13.055Z,2.95
2023-05-23T20:02:41.341Z,2.80
2023-05-23T20:05:10.118Z,2.60
2023-05-23T20:07:39.747Z,2.45
2023-05-23T20:10:08.566Z,2.55
2023-05-23T20:12:36.712Z,2.78
2023-05-23T20:15:06.325Z,2.70
2023-05-23T20:17:34.506Z,2.58
2023-05-23T20:20:03.929Z,2.40
2023-05-23T20:22:32.143Z,3.35
2023-05-23T20:25:01.735Z,2.88
2023-05-23T20:27:29.965Z,3.60
2023-05-23T20:29:58.136Z,2.58
2023-05-23T20:32:26.371Z,2.80
2023-05-23T20:34:54.581Z,2.30
2023-05-23T20:37:22.723Z,2.95
2023-05-23T20:39:50.824Z,3.15
2023-05-23T20:42:20.734Z,2.63
2023-05-23T20:44:48.930Z,2.55
2023-05-23T20:47:17.661Z,2.97
2023-05-23T20:49:47.663Z,2.90
2023-05-23T20:52:16.881Z,2.75
2023-05-23T20:54:48.048Z,3.20
2023-05-23T20:57:16.397Z,2.30
2023-05-23T20:59:46.030Z,2.50
2023-05-23T21:02:14.376Z,2.25
2023-05-23T21:04:42.577Z,2.20
2023-05-23T21:07:10.821Z,2.85
2023-05-23T21:09:39.058Z,3.05
2023-05-23T21:12:07.497Z,3.35
2023-05-23T21:14:35.661Z,2.72
2023-05-23T21:17:05.784Z,2.70
2023-05-23T21:19:34.558Z,2.78
2023-05-23T21:22:02.751Z,3.25
2023-05-23T21:24:30.854Z,2.38
2023-05-23T21:26:59.044Z,3.10
2023-05-23T21:29:27.200Z,3.00
2023-05-23T21:31:55.474Z,2.42
2023-05-23T21:34:25.109Z,2.53
2023-05-23T21:36:53.494Z,3.08
2023-05-23T21:39:21.887Z,2.92
2023-05-23T21:41:50.175Z,3.45
2023-05-23T21:44:18.855Z,3.00
2023-05-23T21:46:47.432Z,2.85
2023-05-23T21:49:16.747Z,2.80
2023-05-23T21:51:46.318Z,2.88
2023-05-23T21:54:14.723Z,4.15
2023-05-23T21:56:43.073Z,3.10
2023-05-23T21:59:11.376Z,2.55
2023-05-23T22:01:39.585Z,2.80
2023-05-23T22:04:07.895Z,2.55
2023-05-23T22:06:36.581Z,3.13
2023-05-23T22:09:06.122Z,2.85
2023-05-23T22:11:34.771Z,2.90
2023-05-23T22:14:03.188Z,2.60
2023-05-23T22:16:33.391Z,2.92
2023-05-23T22:19:02.122Z,2.70
2023-05-23T22:21:30.820Z,2.78
2023-05-23T22:23:59.191Z,2.67
2023-05-23T22:26:29.168Z,3.00
2023-05-23T22:28:57.638Z,3.17
2023-05-23T22:31:26.425Z,3.25
2023-05-23T22:33:54.680Z,4.38
2023-05-23T22:36:23.251Z,3.35
2023-05-23T22:38:51.354Z,3.40
2023-05-23T22:41:19.545Z,3.13
2023-05-23T22:43:49.142Z,2.88
2023-05-23T22:46:17.283Z,3.00
2023-05-23T22:48:45.529Z,3.50
2023-05-23T22:51:14.696Z,3.60
2023-05-23T22:53:43.415Z,3.88
2023-05-23T22:56:11.822Z,3.97
2023-05-23T22:58:39.958Z,3.42
2023-05-23T23:01:09.510Z,3.35
2023-05-23T23:03:37.723Z,3.60
2023-05-23T23:06:07.563Z,3.17
2023-05-23T23:08:35.761Z,3.25
2023-05-23T23:11:04.292Z,3.10
2023-05-23T23:13:32.384Z,2.90
2023-05-23T23:16:00.529Z,3.08
2023-05-23T23:18:30.043Z,3.20
2023-05-23T23:20:58.313Z,2.92
2023-05-23T23:23:26.425Z,2.95
2023-05-23T23:25:54.548Z,3.03
2023-05-23T23:28:22.669Z,3.17
2023-05-23T23:30:50.811Z,2.95
2023-05-23T23:33:18.926Z,3.08
2023-05-23T23:35:48.851Z,2.88
2023-05-23T23:38:17.408Z,2.58
2023-05-23T23:40:45.903Z,2.65
2023-05-23T23:43:14.382Z,2.65
2023-05-23T23:45:42.520Z,2.17
2023-05-23T23:48:10.703Z,2.50
2023-05-23T23:50:38.835Z,2.53
2023-05-23T23:53:10.749Z,2.80
2023-05-23T23:55:38.901Z,2.88
2023-05-23T23:58:07.092Z,2.15
